createdAt,value
2023-04-25T00:01:22.104Z,1.60
2023-04-25T00:03:48.408Z,1.95
2023-04-25T00:06:14.809Z,1.80
2023-04-25T00:08:40.761Z,1.98
2023-04-25T00:11:06.560Z,1.77
2023-04-25T00:13:32.597Z,2.15
2023-04-25T00:15:58.959Z,1.67
2023-04-25T00:18:24.979Z,2.42
2023-04-25T00:20:50.746Z,2.25
2023-04-25T00:23:18.994Z,2.15
2023-04-25T00:25:45.272Z,2.60
2023-04-25T00:28:11.608Z,2.78
2023-04-25T00:30:37.362Z,2.42
2023-04-25T00:33:03.127Z,2.97
2023-04-25T00:35:28.847Z,2.55
2023-04-25T00:37:55.274Z,2.25
2023-04-25T00:40:21.032Z,1.98
2023-04-25T00:42:47.125Z,2.47
2023-04-25T00:45:14.189Z,2.30
2023-04-25T00:47:40.736Z,2.40
2023-04-25T00:50:07.080Z,2.42
2023-04-25T00:52:32.929Z,1.75
2023-04-25T00:54:59.798Z,1.92
2023-04-25T00:57:26.035Z,2.72
2023-04-25T00:59:52.708Z,2.45
2023-04-25T01:02:18.777Z,2.15
2023-04-25T01:04:44.874Z,1.90
2023-04-25T01:07:10.655Z,2.40
2023-04-25T01:09:36.459Z,1.80
2023-04-25T01:12:03.216Z,2.65
2023-04-25T01:14:30.210Z,2.45
2023-04-25T01:16:56.001Z,1.83
2023-04-25T01:19:21.851Z,1.80
2023-04-25T01:21:47.611Z,2.40
2023-04-25T01:24:13.640Z,2.25
2023-04-25T01:26:40.560Z,2.15
2023-04-25T01:29:07.522Z,2.47
2023-04-25T01:31:35.215Z,2.05
2023-04-25T01:34:01.116Z,2.55
2023-04-25T01:36:27.437Z,2.10
2023-04-25T01:38:53.163Z,2.30
2023-04-25T01:41:19.206Z,3.10
2023-04-25T01:43:45.196Z,2.08
2023-04-25T01:46:12.035Z,2.40
2023-04-25T01:48:37.822Z,2.15
2023-04-25T01:51:03.658Z,2.50
2023-04-25T01:53:29.753Z,2.53
2023-04-25T01:55:55.551Z,2.28
2023-04-25T01:58:21.295Z,2.40
2023-04-25T02:00:47.066Z,2.53
2023-04-25T02:03:12.999Z,2.70
2023-04-25T02:05:39.205Z,2.22
2023-04-25T02:08:08.987Z,3.08
2023-04-25T02:10:35.109Z,2.40
2023-04-25T02:13:00.898Z,2.80
2023-04-25T02:15:26.894Z,3.03
2023-04-25T02:17:53.074Z,3.03
2023-04-25T02:20:20.371Z,4.05
2023-04-25T02:22:46.301Z,2.50
2023-04-25T02:25:12.226Z,2.95
2023-04-25T02:27:38.064Z,2.60
2023-04-25T02:30:05.129Z,2.80
2023-04-25T02:32:30.989Z,2.95
2023-04-25T02:34:58.926Z,3.35
2023-04-25T02:37:24.698Z,2.50
2023-04-25T02:39:50.428Z,3.85
2023-04-25T02:42:16.146Z,2.88
2023-04-25T02:44:42.161Z,3.50
2023-04-25T02:47:08.020Z,3.22
2023-04-25T02:49:33.808Z,2.95
2023-04-25T02:52:00.079Z,3.50
2023-04-25T02:54:26.213Z,3.08
2023-04-25T02:56:51.965Z,2.80
2023-04-25T02:59:17.710Z,2.72
2023-04-25T03:01:43.485Z,3.30
2023-04-25T03:04:09.240Z,2.55
2023-04-25T03:06:34.946Z,2.92
2023-04-25T03:09:00.709Z,3.03
2023-04-25T03:11:26.506Z,2.50
2023-04-25T03:13:52.633Z,2.90
2023-04-25T03:16:18.842Z,5.00
2023-04-25T03:18:44.667Z,3.42
2023-04-25T03:21:10.528Z,3.83
2023-04-25T03:23:36.293Z,2.58
2023-04-25T03:26:02.056Z,3.50
2023-04-25T03:28:28.956Z,2.65
2023-04-25T03:30:54.672Z,3.25
2023-04-25T03:33:20.564Z,3.10
2023-04-25T03:35:46.325Z,3.60
2023-04-25T03:38:12.060Z,3.58
2023-04-25T03:40:37.778Z,3.45
2023-04-25T03:43:03.499Z,3.97
2023-04-25T03:45:29.675Z,3.33
2023-04-25T03:47:55.433Z,4.70
2023-04-25T03:50:21.213Z,3.75
2023-04-25T03:52:46.931Z,3.80
2023-04-25T03:55:12.658Z,3.33
2023-04-25T03:57:38.405Z,3.30
2023-04-25T04:00:04.668Z,3.80
2023-04-25T04:02:30.569Z,3.58
2023-04-25T04:04:57.212Z,3.65
2023-04-25T04:07:23.128Z,3.67
2023-04-25T04:09:49.196Z,3.25
2023-04-25T04:12:15.007Z,3.45
2023-04-25T04:14:50.275Z,3.05
2023-04-25T04:17:16.232Z,3.38
2023-04-25T04:19:42.085Z,2.97
2023-04-25T04:22:07.969Z,2.95
2023-04-25T04:24:34.379Z,3.63
2023-04-25T04:27:00.212Z,4.05
2023-04-25T04:29:26.264Z,3.38
2023-04-25T04:31:52.958Z,4.32
2023-04-25T04:34:19.088Z,4.40
2023-04-25T04:36:46.469Z,3.70
2023-04-25T04:39:12.932Z,3.97
2023-04-25T04:41:38.874Z,3.10
2023-04-25T04:44:08.327Z,3.75
2023-04-25T04:46:38.068Z,3.70
2023-04-25T04:49:06.812Z,4.32
2023-04-25T04:51:32.791Z,3.83
2023-04-25T04:54:02.753Z,3.72
2023-04-25T04:56:31.323Z,4.35
2023-04-25T04:59:00.193Z,3.70
2023-04-25T05:01:27.557Z,4.20
2023-04-25T05:03:53.993Z,4.43
2023-04-25T05:06:20.518Z,4.30
2023-04-25T05:08:46.547Z,3.67
2023-04-25T05:11:12.387Z,3.92
2023-04-25T05:13:38.286Z,3.67
2023-04-25T05:16:07.731Z,3.60
2023-04-25T05:18:33.858Z,4.47
2023-04-25T05:21:00.154Z,3.58
2023-04-25T05:23:28.151Z,3.92
2023-04-25T05:25:54.008Z,4.05
2023-04-25T05:28:21.195Z,4.65
2023-04-25T05:30:48.367Z,4.82
2023-04-25T05:33:14.428Z,4.70
2023-04-25T05:35:40.571Z,3.85
2023-04-25T05:38:06.913Z,4.55
2023-04-25T05:40:32.968Z,3.33
2023-04-25T05:42:58.908Z,4.05
2023-04-25T05:45:28.225Z,3.80
2023-04-25T05:47:54.218Z,3.88
2023-04-25T05:50:20.267Z,3.60
2023-04-25T05:52:46.441Z,3.83
2023-04-25T05:55:12.410Z,3.90
2023-04-25T05:57:41.858Z,4.45
2023-04-25T06:00:09.795Z,5.03
2023-04-25T06:02:36.006Z,3.90
2023-04-25T06:05:04.199Z,4.38
2023-04-25T06:07:31.600Z,3.92
2023-04-25T06:09:57.925Z,4.07
2023-04-25T06:12:23.851Z,3.28
2023-04-25T06:14:49.861Z,4.35
2023-04-25T06:17:16.198Z,3.75
2023-04-25T06:19:42.009Z,3.70
2023-04-25T06:22:08.161Z,4.38
2023-04-25T06:24:34.123Z,3.38
2023-04-25T06:27:00.610Z,4.25
2023-04-25T06:29:26.726Z,4.13
2023-04-25T06:31:53.061Z,3.40
2023-04-25T06:34:19.728Z,4.47
2023-04-25T06:36:45.657Z,3.53
2023-04-25T06:39:11.750Z,3.85
2023-04-25T06:41:38.372Z,3.53
2023-04-25T06:44:04.479Z,3.83
2023-04-25T06:46:30.725Z,3.58
2023-04-25T06:48:56.529Z,3.42
2023-04-25T06:51:24.208Z,3.83
2023-04-25T06:53:50.408Z,3.25
2023-04-25T06:56:16.500Z,4.15
2023-04-25T06:58:42.349Z,3.85
2023-04-25T07:01:08.208Z,3.35
2023-04-25T07:03:34.136Z,3.10
2023-04-25T07:06:00.542Z,3.78
2023-04-25T07:08:26.416Z,2.95
2023-04-25T07:10:52.272Z,3.05
2023-04-25T07:13:20.607Z,3.45
2023-04-25T07:15:52.695Z,2.95
2023-04-25T07:18:18.640Z,4.57
2023-04-25T07:20:44.890Z,4.25
2023-04-25T07:23:10.784Z,3.25
2023-04-25T07:25:36.840Z,3.80
2023-04-25T07:28:03.322Z,4.53
2023-04-25T07:30:29.241Z,3.72
2023-04-25T07:32:56.429Z,2.88
2023-04-25T07:35:22.577Z,3.97
2023-04-25T07:37:48.511Z,3.15
2023-04-25T07:40:16.898Z,2.88
2023-04-25T07:42:43.150Z,3.08
2023-04-25T07:45:14.640Z,4.35
2023-04-25T07:47:40.631Z,2.92
2023-04-25T07:50:07.156Z,4.60
2023-04-25T07:52:33.130Z,3.88
2023-04-25T07:54:59.007Z,3.45
2023-04-25T07:57:25.150Z,3.20
2023-04-25T07:59:51.095Z,3.08
2023-04-25T08:02:17.492Z,3.55
2023-04-25T08:04:43.798Z,3.65
2023-04-25T08:07:10.150Z,3.08
2023-04-25T08:09:37.346Z,4.25
2023-04-25T08:12:04.624Z,3.85
2023-04-25T08:14:35.972Z,4.03
2023-04-25T08:17:04.374Z,3.60
2023-04-25T08:19:31.254Z,2.97
2023-04-25T08:21:57.447Z,3.40
2023-04-25T08:24:23.554Z,3.63
2023-04-25T08:26:49.674Z,2.92
2023-04-25T08:29:16.587Z,3.75
2023-04-25T08:31:42.679Z,3.60
2023-04-25T08:34:08.775Z,3.88
2023-04-25T08:36:39.628Z,3.13
2023-04-25T08:39:06.305Z,3.30
2023-04-25T08:41:32.425Z,3.28
2023-04-25T08:44:00.640Z,3.03
2023-04-25T08:46:31.532Z,2.50
2023-04-25T08:49:01.035Z,2.80
2023-04-25T08:51:28.524Z,3.22
2023-04-25T08:54:30.905Z,2.75
2023-04-25T08:56:41.723Z,3.03
2023-04-25T08:59:08.581Z,3.10
2023-04-25T09:01:35.710Z,2.95
2023-04-25T09:04:01.925Z,2.08
2023-04-25T09:06:29.016Z,2.80
2023-04-25T09:08:54.944Z,2.97
2023-04-25T09:11:22.770Z,2.22
2023-04-25T09:13:49.515Z,3.45
2023-04-25T09:16:18.000Z,2.65
2023-04-25T09:18:48.616Z,2.65
2023-04-25T09:23:42.569Z,2.60
2023-04-25T09:26:09.382Z,3.45
2023-04-25T09:28:35.607Z,3.35
2023-04-25T09:31:01.885Z,2.70
2023-04-25T09:33:31.879Z,2.83
2023-04-25T09:36:05.327Z,2.67
2023-04-25T09:38:41.591Z,2.17
2023-04-25T09:41:08.317Z,3.10
2023-04-25T09:43:34.122Z,2.63
2023-04-25T09:46:26.589Z,2.22
2023-04-25T09:48:54.352Z,2.40
2023-04-25T09:51:20.236Z,2.92
2023-04-25T09:53:47.088Z,2.38
2023-04-25T09:56:13.656Z,2.63
2023-04-25T09:58:40.714Z,2.30
2023-04-25T10:01:08.146Z,1.48
2023-04-25T10:03:35.440Z,2.95
2023-04-25T10:06:02.803Z,2.00
2023-04-25T10:08:33.634Z,2.15
2023-04-25T10:11:01.120Z,3.15
2023-04-25T10:13:27.704Z,2.67
2023-04-25T10:15:58.331Z,2.15
2023-04-25T10:18:25.169Z,2.97
2023-04-25T10:20:53.317Z,2.08
2023-04-25T10:23:20.583Z,2.13
2023-04-25T10:25:46.457Z,2.53
2023-04-25T10:28:12.277Z,1.80
2023-04-25T10:30:38.767Z,2.20
2023-04-25T10:33:16.897Z,2.88
2023-04-25T10:35:42.747Z,1.90
2023-04-25T10:38:14.534Z,2.00
2023-04-25T10:40:40.444Z,2.90
2023-04-25T10:43:25.336Z,2.53
2023-04-25T10:46:13.304Z,2.70
2023-04-25T10:48:44.498Z,2.80
2023-04-25T10:51:11.326Z,2.30
2023-04-25T10:53:37.522Z,2.28
2023-04-25T10:56:17.283Z,2.58
2023-04-25T10:58:43.914Z,1.67
2023-04-25T11:01:10.015Z,1.67
2023-04-25T11:03:41.684Z,2.22
2023-04-25T11:06:10.393Z,2.88
2023-04-25T11:08:48.060Z,1.73
2023-04-25T11:11:14.928Z,3.55
2023-04-25T11:13:40.853Z,2.03
2023-04-25T11:16:13.616Z,1.77
2023-04-25T11:18:49.861Z,2.10
2023-04-25T11:21:16.282Z,2.20
2023-04-25T11:23:45.704Z,2.50
2023-04-25T11:26:11.640Z,2.10
2023-04-25T11:28:37.513Z,1.50
2023-04-25T11:31:04.757Z,2.03
2023-04-25T11:33:30.703Z,1.67
2023-04-25T11:35:56.859Z,1.45
2023-04-25T11:38:25.377Z,2.28
2023-04-25T11:40:53.252Z,1.93
2023-04-25T11:43:22.401Z,1.90
2023-04-25T11:45:52.748Z,2.70
2023-04-25T11:48:20.521Z,1.80
2023-04-25T11:50:47.842Z,1.83
2023-04-25T11:53:13.861Z,1.70
2023-04-25T11:55:40.470Z,1.63
2023-04-25T11:58:07.321Z,2.13
2023-04-25T12:00:33.314Z,2.17
2023-04-25T12:02:59.575Z,1.52
2023-04-25T12:05:32.798Z,1.90
2023-04-25T12:08:13.024Z,1.90
2023-04-25T12:10:40.631Z,1.70
2023-04-25T12:13:20.898Z,1.40
2023-04-25T12:16:08.959Z,1.30
2023-04-25T12:18:36.574Z,1.80
2023-04-25T12:21:04.958Z,1.80
2023-04-25T12:23:31.276Z,2.15
2023-04-25T12:25:58.254Z,1.52
2023-04-25T12:28:24.966Z,4.20
2023-04-25T12:31:04.988Z,1.42
2023-04-25T12:33:31.960Z,2.35
2023-04-25T12:35:58.611Z,1.48
2023-04-25T12:38:28.336Z,1.95
2023-04-25T12:40:54.460Z,1.90
2023-04-25T12:43:20.457Z,1.90
2023-04-25T12:45:59.422Z,1.77
2023-04-25T12:48:25.507Z,1.73
2023-04-25T12:50:52.308Z,2.15
2023-04-25T12:53:18.413Z,1.60
2023-04-25T12:55:46.402Z,2.40
2023-04-25T12:58:13.399Z,1.80
2023-04-25T13:00:39.525Z,1.63
2023-04-25T13:03:05.957Z,1.95
2023-04-25T13:05:31.911Z,1.48
2023-04-25T13:07:57.790Z,1.67
2023-04-25T13:10:23.893Z,1.63
2023-04-25T13:12:51.154Z,1.20
2023-04-25T13:15:23.029Z,1.40
2023-04-25T13:17:48.914Z,1.48
2023-04-25T13:20:16.103Z,1.17
2023-04-25T13:22:42.509Z,1.23
2023-04-25T13:25:08.720Z,1.35
2023-04-25T13:27:36.208Z,1.85
2023-04-25T13:30:07.488Z,1.90
2023-04-25T13:32:36.919Z,1.67
2023-04-25T13:35:06.551Z,1.77
2023-04-25T13:37:34.607Z,1.40
2023-04-25T13:40:01.802Z,1.02
2023-04-25T13:42:27.975Z,2.53
2023-04-25T13:44:54.024Z,1.77
2023-04-25T13:47:22.456Z,1.55
2023-04-25T13:49:48.397Z,1.88
2023-04-25T13:52:14.433Z,2.05
2023-04-25T13:54:40.964Z,2.00
2023-04-25T13:57:07.147Z,1.75
2023-04-25T13:59:33.223Z,1.63
2023-04-25T14:01:59.571Z,2.45
2023-04-25T14:04:25.654Z,1.95
2023-04-25T14:06:52.459Z,2.00
2023-04-25T14:09:20.163Z,1.70
2023-04-25T14:11:46.222Z,2.08
2023-04-25T14:16:57.694Z,2.10
2023-04-25T14:19:24.163Z,1.73
2023-04-25T14:21:50.197Z,2.03
2023-04-25T14:24:17.312Z,2.05
2023-04-25T14:26:44.402Z,1.95
2023-04-25T14:29:12.319Z,1.75
2023-04-25T14:31:40.670Z,2.10
2023-04-25T14:34:06.672Z,1.77
2023-04-25T14:36:32.807Z,2.00
2023-04-25T14:38:58.805Z,2.13
2023-04-25T14:41:25.320Z,1.95
2023-04-25T14:43:51.546Z,2.40
2023-04-25T14:46:17.886Z,2.05
2023-04-25T14:48:43.800Z,1.52
2023-04-25T14:51:09.666Z,1.48
2023-04-25T14:53:35.808Z,2.30
2023-04-25T14:56:01.668Z,2.13
2023-04-25T14:58:27.478Z,1.80
2023-04-25T15:00:53.699Z,1.75
2023-04-25T15:03:19.745Z,2.10
2023-04-25T15:05:45.936Z,2.22
2023-04-25T15:08:11.970Z,1.58
2023-04-25T15:10:37.957Z,1.77
2023-04-25T15:13:04.343Z,1.48
2023-04-25T15:15:30.537Z,1.70
2023-04-25T15:17:59.074Z,1.63
2023-04-25T15:20:25.565Z,1.63
2023-04-25T15:22:51.675Z,1.77
2023-04-25T15:25:18.450Z,1.38
2023-04-25T15:27:45.702Z,1.10
2023-04-25T15:30:13.200Z,1.17
2023-04-25T15:32:39.308Z,1.77
2023-04-25T15:35:06.311Z,1.60
2023-04-25T15:37:35.797Z,1.25
2023-04-25T15:40:06.980Z,0.98
2023-04-25T15:42:33.162Z,1.25
2023-04-25T15:45:06.301Z,1.45
2023-04-25T15:47:32.653Z,1.60
2023-04-25T15:49:58.960Z,1.38
2023-04-25T15:52:25.518Z,0.95
2023-04-25T15:54:52.074Z,1.90
2023-04-25T15:57:17.944Z,1.27
2023-04-25T15:59:43.760Z,1.15
2023-04-25T16:02:10.164Z,1.33
2023-04-25T16:04:36.564Z,1.30
2023-04-25T16:07:03.102Z,1.35
2023-04-25T16:09:29.499Z,1.30
2023-04-25T16:11:55.768Z,1.30
2023-04-25T16:14:26.882Z,1.67
2023-04-25T16:16:53.270Z,1.40
2023-04-25T16:19:19.271Z,1.05
2023-04-25T16:21:45.169Z,1.13
2023-04-25T16:24:11.325Z,1.35
2023-04-25T16:26:37.118Z,1.60
2023-04-25T16:29:03.578Z,1.27
2023-04-25T16:31:29.918Z,1.25
2023-04-25T16:33:55.876Z,1.17
2023-04-25T16:36:22.885Z,1.38
2023-04-25T16:38:49.526Z,1.30
2023-04-25T16:41:15.669Z,1.30
2023-04-25T16:43:42.033Z,1.35
2023-04-25T16:46:23.734Z,1.23
2023-04-25T16:48:50.174Z,1.10
2023-04-25T16:51:16.409Z,0.90
2023-04-25T16:53:42.535Z,1.05
2023-04-25T16:56:08.471Z,1.17
2023-04-25T16:58:34.779Z,1.77
2023-04-25T17:01:01.162Z,1.85
2023-04-25T17:03:27.708Z,1.17
2023-04-25T17:05:57.150Z,1.10
2023-04-25T17:08:23.753Z,1.30
2023-04-25T17:10:50.177Z,0.82
2023-04-25T17:13:16.086Z,0.95
2023-04-25T17:15:44.990Z,1.52
2023-04-25T17:18:10.988Z,1.20
2023-04-25T17:20:37.359Z,0.90
2023-04-25T17:23:03.404Z,1.00
2023-04-25T17:25:29.297Z,1.20
2023-04-25T17:27:55.298Z,1.20
2023-04-25T17:30:21.471Z,1.48
2023-04-25T17:32:47.283Z,1.85
2023-04-25T17:35:13.189Z,2.78
2023-04-25T17:37:40.208Z,1.30
2023-04-25T17:40:08.386Z,1.25
2023-04-25T17:42:34.676Z,0.93
2023-04-25T17:45:00.589Z,1.27
2023-04-25T17:47:26.746Z,1.70
2023-04-25T17:49:54.166Z,1.35
2023-04-25T17:52:20.031Z,1.10
2023-04-25T17:54:46.641Z,1.42
2023-04-25T17:57:13.869Z,1.20
2023-04-25T17:59:39.758Z,1.77
2023-04-25T18:02:05.650Z,1.48
2023-04-25T18:04:32.205Z,1.58
2023-04-25T18:06:59.017Z,1.30
2023-04-25T18:09:25.636Z,1.15
2023-04-25T18:11:55.939Z,1.50
2023-04-25T18:14:49.998Z,1.15
2023-04-25T18:17:16.595Z,1.38
2023-04-25T18:19:42.351Z,1.52
2023-04-25T18:22:08.468Z,1.40
2023-04-25T18:24:34.292Z,1.80
2023-04-25T18:27:02.031Z,1.60
2023-04-25T18:29:33.480Z,2.67
2023-04-25T18:32:00.223Z,1.27
2023-04-25T18:34:27.458Z,2.00
2023-04-25T18:36:54.986Z,2.03
2023-04-25T18:39:23.117Z,1.30
2023-04-25T18:41:58.130Z,1.17
2023-04-25T18:44:33.004Z,1.52
2023-04-25T18:46:58.781Z,1.10
2023-04-25T18:49:24.648Z,1.25
2023-04-25T18:51:51.060Z,1.67
2023-04-25T18:54:16.767Z,1.27
2023-04-25T18:56:42.708Z,0.80
2023-04-25T18:59:08.929Z,1.33
2023-04-25T19:01:34.779Z,1.73
2023-04-25T19:04:05.082Z,0.90
2023-04-25T19:06:32.485Z,1.00
2023-04-25T19:08:58.447Z,1.73
2023-04-25T19:11:24.527Z,1.27
2023-04-25T19:13:50.877Z,1.73
2023-04-25T19:16:22.459Z,2.67
2023-04-25T19:18:48.375Z,1.65
2023-04-25T19:21:14.357Z,1.17
2023-04-25T19:23:40.857Z,1.50
2023-04-25T19:26:06.757Z,1.60
2023-04-25T19:28:33.046Z,2.13
2023-04-25T19:30:59.098Z,1.27
2023-04-25T19:33:25.268Z,2.03
2023-04-25T19:35:51.162Z,2.33
2023-04-25T19:38:17.026Z,1.75
2023-04-25T19:40:42.960Z,1.50
2023-04-25T19:43:09.501Z,1.30
2023-04-25T19:45:38.977Z,1.35
2023-04-25T19:48:04.989Z,1.23
2023-04-25T19:50:31.195Z,1.23
2023-04-25T19:52:57.210Z,1.33
2023-04-25T19:55:23.317Z,1.10
2023-04-25T19:57:49.364Z,2.45
2023-04-25T20:00:17.415Z,1.10
2023-04-25T20:02:45.148Z,1.48
2023-04-25T20:05:12.699Z,1.27
2023-04-25T20:07:38.605Z,1.38
2023-04-25T20:10:06.138Z,2.75
2023-04-25T20:12:33.249Z,1.20
2023-04-25T20:14:59.145Z,1.83
2023-04-25T20:17:25.217Z,1.10
2023-04-25T20:19:51.060Z,1.00
2023-04-25T20:22:16.846Z,1.20
2023-04-25T20:24:42.559Z,1.10
2023-04-25T20:27:08.422Z,1.88
2023-04-25T20:29:34.751Z,1.05
2023-04-25T20:32:03.110Z,1.27
2023-04-25T20:34:30.946Z,1.65
2023-04-25T20:36:57.173Z,1.20
2023-04-25T20:39:23.116Z,1.20
2023-04-25T20:41:49.218Z,1.13
2023-04-25T20:44:31.478Z,1.10
2023-04-25T20:46:57.392Z,1.20
2023-04-25T20:49:23.294Z,1.08
2023-04-25T20:51:49.026Z,1.40
2023-04-25T20:54:15.162Z,1.40
2023-04-25T20:56:40.960Z,1.10
2023-04-25T20:59:07.210Z,2.05
2023-04-25T21:01:33.751Z,2.60
2023-04-25T21:04:00.135Z,1.10
2023-04-25T21:06:27.099Z,1.27
2023-04-25T21:08:53.176Z,1.98
2023-04-25T21:11:19.259Z,1.15
2023-04-25T21:13:45.237Z,1.83
2023-04-25T21:16:20.617Z,1.50
2023-04-25T21:18:46.401Z,1.08
2023-04-25T21:21:12.265Z,1.30
2023-04-25T21:23:38.114Z,1.48
2023-04-25T21:26:03.975Z,1.33
2023-04-25T21:28:30.464Z,1.30
2023-04-25T21:30:56.349Z,2.05
2023-04-25T21:33:22.100Z,1.55
2023-04-25T21:35:47.955Z,1.33
2023-04-25T21:38:14.932Z,2.90
2023-04-25T21:40:40.754Z,1.30
2023-04-25T21:43:07.053Z,1.83
2023-04-25T21:45:32.969Z,1.50
2023-04-25T21:47:58.703Z,1.15
2023-04-25T21:50:24.925Z,1.52
2023-04-25T21:52:51.236Z,1.75
2023-04-25T21:55:19.024Z,1.10
2023-04-25T21:57:45.752Z,1.17
2023-04-25T22:00:24.106Z,1.42
2023-04-25T22:02:50.978Z,1.05
2023-04-25T22:05:17.407Z,1.30
2023-04-25T22:07:43.168Z,1.10
2023-04-25T22:10:09.524Z,1.60
2023-04-25T22:12:35.868Z,1.02
2023-04-25T22:15:02.989Z,1.10
2023-04-25T22:17:29.107Z,1.48
2023-04-25T22:19:54.817Z,1.88
2023-04-25T22:22:21.032Z,1.40
2023-04-25T22:24:49.074Z,1.05
2023-04-25T22:27:15.036Z,1.42
2023-04-25T22:29:41.116Z,1.83
2023-04-25T22:32:07.013Z,1.80
2023-04-25T22:34:32.979Z,1.52
2023-04-25T22:36:58.925Z,1.15
2023-04-25T22:39:24.794Z,2.13
2023-04-25T22:41:51.037Z,1.73
2023-04-25T22:44:17.116Z,1.73
2023-04-25T22:46:43.251Z,1.40
2023-04-25T22:49:09.036Z,1.85
2023-04-25T22:51:36.329Z,1.42
2023-04-25T22:54:02.830Z,1.15
2023-04-25T22:56:29.059Z,1.55
2023-04-25T22:58:54.963Z,1.80
2023-04-25T23:01:20.901Z,2.17
2023-04-25T23:03:46.858Z,1.63
2023-04-25T23:06:12.972Z,1.80
2023-04-25T23:08:38.734Z,1.67
2023-04-25T23:11:06.026Z,1.20
2023-04-25T23:13:32.490Z,1.17
2023-04-25T23:16:04.045Z,1.20
2023-04-25T23:18:29.753Z,1.70
2023-04-25T23:20:55.456Z,2.42
2023-04-25T23:23:21.591Z,1.50
2023-04-25T23:25:47.327Z,1.20
2023-04-25T23:28:13.045Z,2.53
2023-04-25T23:30:38.829Z,1.27
2023-04-25T23:33:04.813Z,1.10
2023-04-25T23:35:30.633Z,1.75
2023-04-25T23:37:56.746Z,1.83
2023-04-25T23:40:22.500Z,1.25
2023-04-25T23:42:48.287Z,1.10
2023-04-25T23:45:15.821Z,2.08
2023-04-25T23:47:42.426Z,1.67
2023-04-25T23:50:08.417Z,1.55
2023-04-25T23:52:35.389Z,2.22
2023-04-25T23:55:01.309Z,1.92
2023-04-25T23:57:27.047Z,1.73
2023-04-25T23:59:52.789Z,1.67
